sensor_id;sensor_type;location;lat;lon;timestamp;P1;durP1;ratioP1;P2;durP2;ratioP2
55575;SDS011;41437;45.478;9.116;2022-10-15T00:00:39;91.13;;;57.40;;
55575;SDS011;41437;45.478;9.116;2022-10-15T00:03:42;87.32;;;55.63;;
55575;SDS011;41437;45.478;9.116;2022-10-15T00:06:46;82.82;;;52.45;;
55575;SDS011;41437;45.478;9.116;2022-10-15T00:09:47;91.07;;;53.77;;
55575;SDS011;41437;45.478;9.116;2022-10-15T00:12:49;97.72;;;59.03;;
55575;SDS011;41437;45.478;9.116;2022-10-15T00:15:52;91.72;;;55.05;;
55575;SDS011;41437;45.478;9.116;2022-10-15T00:18:54;87.47;;;54.90;;
55575;SDS011;41437;45.478;9.116;2022-10-15T00:21:58;81.18;;;52.47;;
55575;SDS011;41437;45.478;9.116;2022-10-15T00:25:00;77.35;;;49.22;;
55575;SDS011;41437;45.478;9.116;2022-10-15T00:28:02;83.53;;;52.45;;
55575;SDS011;41437;45.478;9.116;2022-10-15T00:31:04;90.68;;;55.88;;
55575;SDS011;41437;45.478;9.116;2022-10-15T00:34:08;87.72;;;54.38;;
55575;SDS011;41437;45.478;9.116;2022-10-15T00:37:12;90.18;;;56.67;;
55575;SDS011;41437;45.478;9.116;2022-10-15T00:40:13;86.90;;;53.07;;
55575;SDS011;41437;45.478;9.116;2022-10-15T00:43:15;93.75;;;56.00;;
55575;SDS011;41437;45.478;9.116;2022-10-15T00:46:19;78.63;;;51.63;;
55575;SDS011;41437;45.478;9.116;2022-10-15T00:49:27;80.22;;;52.42;;
55575;SDS011;41437;45.478;9.116;2022-10-15T00:52:36;89.85;;;55.38;;
55575;SDS011;41437;45.478;9.116;2022-10-15T00:55:41;93.15;;;54.72;;
55575;SDS011;41437;45.478;9.116;2022-10-15T00:58:43;84.93;;;55.67;;
55575;SDS011;41437;45.478;9.116;2022-10-15T01:01:45;87.47;;;57.00;;
55575;SDS011;41437;45.478;9.116;2022-10-15T01:04:47;91.07;;;55.13;;
55575;SDS011;41437;45.478;9.116;2022-10-15T01:07:51;91.30;;;55.57;;
55575;SDS011;41437;45.478;9.116;2022-10-15T01:10:54;96.40;;;59.30;;
55575;SDS011;41437;45.478;9.116;2022-10-15T01:14:14;88.80;;;55.92;;
55575;SDS011;41437;45.478;9.116;2022-10-15T01:17:30;92.07;;;55.20;;
55575;SDS011;41437;45.478;9.116;2022-10-15T01:20:51;90.95;;;55.70;;
55575;SDS011;41437;45.478;9.116;2022-10-15T01:27:43;88.85;;;56.47;;
55575;SDS011;41437;45.478;9.116;2022-10-15T01:30:53;88.20;;;54.58;;
55575;SDS011;41437;45.478;9.116;2022-10-15T01:34:00;85.15;;;53.05;;
55575;SDS011;41437;45.478;9.116;2022-10-15T01:37:06;86.25;;;54.72;;
55575;SDS011;41437;45.478;9.116;2022-10-15T01:40:12;89.25;;;54.92;;
55575;SDS011;41437;45.478;9.116;2022-10-15T01:43:20;84.63;;;53.72;;
55575;SDS011;41437;45.478;9.116;2022-10-15T01:46:28;85.20;;;54.28;;
55575;SDS011;41437;45.478;9.116;2022-10-15T01:49:36;85.50;;;53.10;;
55575;SDS011;41437;45.478;9.116;2022-10-15T01:52:41;86.70;;;54.30;;
55575;SDS011;41437;45.478;9.116;2022-10-15T01:55:46;85.68;;;54.15;;
55575;SDS011;41437;45.478;9.116;2022-10-15T01:58:49;86.97;;;55.40;;
55575;SDS011;41437;45.478;9.116;2022-10-15T02:01:56;93.28;;;56.60;;
55575;SDS011;41437;45.478;9.116;2022-10-15T02:04:58;83.95;;;53.08;;
55575;SDS011;41437;45.478;9.116;2022-10-15T02:08:02;84.32;;;53.80;;
55575;SDS011;41437;45.478;9.116;2022-10-15T02:11:13;80.93;;;49.95;;
55575;SDS011;41437;45.478;9.116;2022-10-15T02:14:18;83.97;;;52.72;;
55575;SDS011;41437;45.478;9.116;2022-10-15T02:17:30;81.50;;;51.38;;
55575;SDS011;41437;45.478;9.116;2022-10-15T02:20:35;81.25;;;51.70;;
55575;SDS011;41437;45.478;9.116;2022-10-15T02:23:45;75.75;;;49.22;;
55575;SDS011;41437;45.478;9.116;2022-10-15T02:26:51;74.50;;;49.97;;
55575;SDS011;41437;45.478;9.116;2022-10-15T02:29:55;76.95;;;51.47;;
55575;SDS011;41437;45.478;9.116;2022-10-15T02:32:59;93.07;;;57.20;;
55575;SDS011;41437;45.478;9.116;2022-10-15T02:36:01;87.17;;;54.33;;
55575;SDS011;41437;45.478;9.116;2022-10-15T02:39:03;82.07;;;51.28;;
55575;SDS011;41437;45.478;9.116;2022-10-15T02:42:05;80.25;;;52.38;;
55575;SDS011;41437;45.478;9.116;2022-10-15T02:45:07;80.70;;;52.38;;
55575;SDS011;41437;45.478;9.116;2022-10-15T02:48:11;78.07;;;50.45;;
55575;SDS011;41437;45.478;9.116;2022-10-15T02:51:13;82.67;;;51.00;;
55575;SDS011;41437;45.478;9.116;2022-10-15T02:54:14;87.22;;;54.22;;
55575;SDS011;41437;45.478;9.116;2022-10-15T02:57:16;84.90;;;52.50;;
55575;SDS011;41437;45.478;9.116;2022-10-15T03:00:18;86.70;;;52.33;;
55575;SDS011;41437;45.478;9.116;2022-10-15T03:03:21;83.55;;;53.45;;
55575;SDS011;41437;45.478;9.116;2022-10-15T03:06:23;86.80;;;53.95;;
55575;SDS011;41437;45.478;9.116;2022-10-15T03:09:25;87.38;;;53.22;;
55575;SDS011;41437;45.478;9.116;2022-10-15T03:12:26;82.20;;;53.05;;
55575;SDS011;41437;45.478;9.116;2022-10-15T03:15:28;82.85;;;51.53;;
55575;SDS011;41437;45.478;9.116;2022-10-15T03:18:31;82.00;;;51.53;;
55575;SDS011;41437;45.478;9.116;2022-10-15T03:21:33;76.70;;;49.80;;
55575;SDS011;41437;45.478;9.116;2022-10-15T03:24:35;78.07;;;49.78;;
55575;SDS011;41437;45.478;9.116;2022-10-15T03:27:36;70.43;;;46.92;;
55575;SDS011;41437;45.478;9.116;2022-10-15T03:30:38;79.68;;;48.83;;
55575;SDS011;41437;45.478;9.116;2022-10-15T03:33:41;80.18;;;50.17;;
55575;SDS011;41437;45.478;9.116;2022-10-15T03:36:43;83.40;;;51.90;;
55575;SDS011;41437;45.478;9.116;2022-10-15T03:39:44;82.03;;;50.08;;
55575;SDS011;41437;45.478;9.116;2022-10-15T03:42:48;76.68;;;47.15;;
55575;SDS011;41437;45.478;9.116;2022-10-15T03:45:51;75.00;;;46.33;;
55575;SDS011;41437;45.478;9.116;2022-10-15T03:48:54;76.60;;;46.95;;
55575;SDS011;41437;45.478;9.116;2022-10-15T03:51:56;73.10;;;47.63;;
55575;SDS011;41437;45.478;9.116;2022-10-15T03:54:57;71.78;;;46.65;;
55575;SDS011;41437;45.478;9.116;2022-10-15T03:57:59;67.60;;;44.03;;
55575;SDS011;41437;45.478;9.116;2022-10-15T04:01:01;74.13;;;47.40;;
55575;SDS011;41437;45.478;9.116;2022-10-15T04:04:10;66.75;;;44.10;;
55575;SDS011;41437;45.478;9.116;2022-10-15T04:07:12;67.30;;;44.33;;
55575;SDS011;41437;45.478;9.116;2022-10-15T04:10:14;63.97;;;41.75;;
55575;SDS011;41437;45.478;9.116;2022-10-15T04:13:16;69.25;;;44.85;;
55575;SDS011;41437;45.478;9.116;2022-10-15T04:16:17;73.40;;;46.58;;
55575;SDS011;41437;45.478;9.116;2022-10-15T04:19:20;73.00;;;43.05;;
55575;SDS011;41437;45.478;9.116;2022-10-15T04:22:22;69.47;;;44.25;;
55575;SDS011;41437;45.478;9.116;2022-10-15T04:25:24;66.55;;;42.70;;
55575;SDS011;41437;45.478;9.116;2022-10-15T04:28:26;67.40;;;45.03;;
55575;SDS011;41437;45.478;9.116;2022-10-15T04:31:28;68.32;;;43.17;;
55575;SDS011;41437;45.478;9.116;2022-10-15T04:34:31;64.50;;;42.70;;
55575;SDS011;41437;45.478;9.116;2022-10-15T04:37:33;73.88;;;45.72;;
55575;SDS011;41437;45.478;9.116;2022-10-15T04:40:35;71.63;;;44.72;;
55575;SDS011;41437;45.478;9.116;2022-10-15T04:43:37;69.07;;;44.45;;
55575;SDS011;41437;45.478;9.116;2022-10-15T04:46:40;72.43;;;45.63;;
55575;SDS011;41437;45.478;9.116;2022-10-15T04:49:43;67.70;;;43.88;;
55575;SDS011;41437;45.478;9.116;2022-10-15T04:52:45;67.47;;;44.03;;
55575;SDS011;41437;45.478;9.116;2022-10-15T04:55:47;66.20;;;44.30;;
55575;SDS011;41437;45.478;9.116;2022-10-15T04:58:49;66.90;;;44.63;;
55575;SDS011;41437;45.478;9.116;2022-10-15T05:01:51;69.32;;;41.65;;
55575;SDS011;41437;45.478;9.116;2022-10-15T05:04:54;64.60;;;41.83;;
55575;SDS011;41437;45.478;9.116;2022-10-15T05:07:57;62.10;;;41.97;;
55575;SDS011;41437;45.478;9.116;2022-10-15T05:11:00;64.07;;;41.28;;
55575;SDS011;41437;45.478;9.116;2022-10-15T05:14:02;63.90;;;42.25;;
55575;SDS011;41437;45.478;9.116;2022-10-15T05:17:04;60.70;;;41.47;;
55575;SDS011;41437;45.478;9.116;2022-10-15T05:20:07;63.70;;;42.60;;
55575;SDS011;41437;45.478;9.116;2022-10-15T05:23:10;64.95;;;42.80;;
55575;SDS011;41437;45.478;9.116;2022-10-15T05:26:12;64.43;;;41.35;;
55575;SDS011;41437;45.478;9.116;2022-10-15T05:29:17;62.70;;;41.15;;
55575;SDS011;41437;45.478;9.116;2022-10-15T05:32:19;65.65;;;41.90;;
55575;SDS011;41437;45.478;9.116;2022-10-15T05:35:22;64.65;;;42.95;;
55575;SDS011;41437;45.478;9.116;2022-10-15T05:38:24;67.50;;;44.00;;
55575;SDS011;41437;45.478;9.116;2022-10-15T05:41:25;61.35;;;41.50;;
55575;SDS011;41437;45.478;9.116;2022-10-15T05:44:28;66.72;;;41.72;;
55575;SDS011;41437;45.478;9.116;2022-10-15T05:47:29;71.07;;;42.60;;
55575;SDS011;41437;45.478;9.116;2022-10-15T05:50:32;67.75;;;42.90;;
55575;SDS011;41437;45.478;9.116;2022-10-15T05:53:34;70.00;;;42.03;;
55575;SDS011;41437;45.478;9.116;2022-10-15T05:56:36;63.72;;;42.40;;
55575;SDS011;41437;45.478;9.116;2022-10-15T05:59:38;65.45;;;41.50;;
55575;SDS011;41437;45.478;9.116;2022-10-15T06:02:40;61.80;;;41.17;;
55575;SDS011;41437;45.478;9.116;2022-10-15T06:05:43;72.18;;;43.38;;
55575;SDS011;41437;45.478;9.116;2022-10-15T06:08:45;66.18;;;42.05;;
55575;SDS011;41437;45.478;9.116;2022-10-15T06:11:47;68.45;;;43.28;;
55575;SDS011;41437;45.478;9.116;2022-10-15T06:14:49;63.08;;;40.92;;
55575;SDS011;41437;45.478;9.116;2022-10-15T06:17:51;59.80;;;39.63;;
55575;SDS011;41437;45.478;9.116;2022-10-15T06:20:54;59.33;;;39.67;;
55575;SDS011;41437;45.478;9.116;2022-10-15T06:23:56;63.97;;;42.33;;
55575;SDS011;41437;45.478;9.116;2022-10-15T06:26:58;67.35;;;40.80;;
55575;SDS011;41437;45.478;9.116;2022-10-15T06:29:59;63.28;;;41.20;;
55575;SDS011;41437;45.478;9.116;2022-10-15T06:33:01;71.70;;;42.67;;
55575;SDS011;41437;45.478;9.116;2022-10-15T06:36:07;62.53;;;39.80;;
55575;SDS011;41437;45.478;9.116;2022-10-15T06:39:10;64.57;;;40.22;;
55575;SDS011;41437;45.478;9.116;2022-10-15T06:42:11;63.10;;;39.33;;
55575;SDS011;41437;45.478;9.116;2022-10-15T06:45:13;64.13;;;40.55;;
55575;SDS011;41437;45.478;9.116;2022-10-15T06:48:15;64.05;;;40.03;;
55575;SDS011;41437;45.478;9.116;2022-10-15T06:51:18;61.78;;;40.33;;
55575;SDS011;41437;45.478;9.116;2022-10-15T06:54:20;62.93;;;40.77;;
55575;SDS011;41437;45.478;9.116;2022-10-15T06:57:22;70.00;;;41.00;;
55575;SDS011;41437;45.478;9.116;2022-10-15T07:00:24;60.00;;;39.58;;
55575;SDS011;41437;45.478;9.116;2022-10-15T07:03:26;66.68;;;41.45;;
55575;SDS011;41437;45.478;9.116;2022-10-15T07:06:29;63.42;;;41.55;;
55575;SDS011;41437;45.478;9.116;2022-10-15T07:09:31;65.03;;;41.80;;
55575;SDS011;41437;45.478;9.116;2022-10-15T07:12:34;60.95;;;40.58;;
55575;SDS011;41437;45.478;9.116;2022-10-15T07:15:36;68.32;;;41.50;;
55575;SDS011;41437;45.478;9.116;2022-10-15T07:18:37;64.88;;;40.80;;
55575;SDS011;41437;45.478;9.116;2022-10-15T07:21:41;60.90;;;41.13;;
55575;SDS011;41437;45.478;9.116;2022-10-15T07:24:43;65.13;;;41.47;;
55575;SDS011;41437;45.478;9.116;2022-10-15T07:27:45;66.13;;;41.72;;
55575;SDS011;41437;45.478;9.116;2022-10-15T07:30:46;62.53;;;40.20;;
55575;SDS011;41437;45.478;9.116;2022-10-15T07:33:48;64.88;;;41.70;;
55575;SDS011;41437;45.478;9.116;2022-10-15T07:36:51;65.75;;;41.65;;
55575;SDS011;41437;45.478;9.116;2022-10-15T07:39:53;61.22;;;41.30;;
55575;SDS011;41437;45.478;9.116;2022-10-15T07:42:56;62.42;;;41.28;;
55575;SDS011;41437;45.478;9.116;2022-10-15T07:45:59;63.22;;;41.80;;
55575;SDS011;41437;45.478;9.116;2022-10-15T07:49:01;64.28;;;43.17;;
55575;SDS011;41437;45.478;9.116;2022-10-15T07:52:04;72.50;;;43.92;;
55575;SDS011;41437;45.478;9.116;2022-10-15T07:55:07;72.15;;;43.03;;
55575;SDS011;41437;45.478;9.116;2022-10-15T07:58:11;74.90;;;45.55;;
55575;SDS011;41437;45.478;9.116;2022-10-15T08:01:13;69.30;;;44.58;;
55575;SDS011;41437;45.478;9.116;2022-10-15T08:04:14;68.85;;;42.67;;
55575;SDS011;41437;45.478;9.116;2022-10-15T08:07:17;76.55;;;44.40;;
55575;SDS011;41437;45.478;9.116;2022-10-15T08:10:19;78.60;;;47.58;;
55575;SDS011;41437;45.478;9.116;2022-10-15T08:13:21;80.80;;;48.45;;
55575;SDS011;41437;45.478;9.116;2022-10-15T08:16:22;80.13;;;46.95;;
55575;SDS011;41437;45.478;9.116;2022-10-15T08:19:24;79.80;;;47.78;;
55575;SDS011;41437;45.478;9.116;2022-10-15T08:22:27;87.93;;;49.65;;
55575;SDS011;41437;45.478;9.116;2022-10-15T08:25:29;78.43;;;48.17;;
55575;SDS011;41437;45.478;9.116;2022-10-15T08:28:32;82.60;;;49.50;;
55575;SDS011;41437;45.478;9.116;2022-10-15T08:31:34;80.30;;;49.47;;
55575;SDS011;41437;45.478;9.116;2022-10-15T08:34:36;78.50;;;48.08;;
55575;SDS011;41437;45.478;9.116;2022-10-15T08:37:39;76.18;;;48.22;;
55575;SDS011;41437;45.478;9.116;2022-10-15T08:40:44;83.45;;;49.85;;
55575;SDS011;41437;45.478;9.116;2022-10-15T08:43:47;78.50;;;46.75;;
55575;SDS011;41437;45.478;9.116;2022-10-15T08:46:49;75.57;;;46.65;;
55575;SDS011;41437;45.478;9.116;2022-10-15T08:49:54;79.10;;;47.50;;
55575;SDS011;41437;45.478;9.116;2022-10-15T08:53:00;85.47;;;51.80;;
55575;SDS011;41437;45.478;9.116;2022-10-15T08:56:03;76.32;;;47.17;;
55575;SDS011;41437;45.478;9.116;2022-10-15T08:59:14;82.60;;;51.58;;
55575;SDS011;41437;45.478;9.116;2022-10-15T09:02:25;86.87;;;52.33;;
55575;SDS011;41437;45.478;9.116;2022-10-15T09:05:35;92.43;;;54.75;;
55575;SDS011;41437;45.478;9.116;2022-10-15T09:08:47;97.82;;;56.42;;
55575;SDS011;41437;45.478;9.116;2022-10-15T09:11:58;99.87;;;59.27;;
55575;SDS011;41437;45.478;9.116;2022-10-15T09:15:08;97.82;;;56.00;;
55575;SDS011;41437;45.478;9.116;2022-10-15T09:18:16;96.10;;;56.10;;
55575;SDS011;41437;45.478;9.116;2022-10-15T09:21:23;95.43;;;56.15;;
55575;SDS011;41437;45.478;9.116;2022-10-15T09:24:28;91.55;;;53.80;;
55575;SDS011;41437;45.478;9.116;2022-10-15T09:27:35;104.68;;;59.63;;
55575;SDS011;41437;45.478;9.116;2022-10-15T09:30:41;105.80;;;60.42;;
55575;SDS011;41437;45.478;9.116;2022-10-15T09:33:49;109.68;;;63.00;;
55575;SDS011;41437;45.478;9.116;2022-10-15T09:36:56;105.78;;;61.65;;
55575;SDS011;41437;45.478;9.116;2022-10-15T09:40:11;107.72;;;64.90;;
55575;SDS011;41437;45.478;9.116;2022-10-15T09:43:29;120.70;;;67.07;;
55575;SDS011;41437;45.478;9.116;2022-10-15T09:46:41;126.88;;;70.45;;
55575;SDS011;41437;45.478;9.116;2022-10-15T09:49:44;117.80;;;69.88;;
55575;SDS011;41437;45.478;9.116;2022-10-15T09:52:59;124.90;;;69.07;;
55575;SDS011;41437;45.478;9.116;2022-10-15T09:56:14;128.10;;;70.95;;
55575;SDS011;41437;45.478;9.116;2022-10-15T09:59:19;116.50;;;66.80;;
55575;SDS011;41437;45.478;9.116;2022-10-15T10:02:23;111.55;;;66.32;;
55575;SDS011;41437;45.478;9.116;2022-10-15T10:05:26;121.07;;;70.60;;
55575;SDS011;41437;45.478;9.116;2022-10-15T10:08:32;131.18;;;71.93;;
55575;SDS011;41437;45.478;9.116;2022-10-15T10:11:46;129.38;;;71.50;;
55575;SDS011;41437;45.478;9.116;2022-10-15T10:14:52;132.23;;;74.78;;
55575;SDS011;41437;45.478;9.116;2022-10-15T10:17:56;124.85;;;72.28;;
55575;SDS011;41437;45.478;9.116;2022-10-15T10:20:58;121.20;;;70.38;;
55575;SDS011;41437;45.478;9.116;2022-10-15T10:24:18;125.45;;;70.95;;
55575;SDS011;41437;45.478;9.116;2022-10-15T10:27:34;120.95;;;69.57;;
55575;SDS011;41437;45.478;9.116;2022-10-15T10:30:41;113.65;;;65.32;;
55575;SDS011;41437;45.478;9.116;2022-10-15T10:33:49;123.13;;;69.18;;
55575;SDS011;41437;45.478;9.116;2022-10-15T10:36:52;115.43;;;66.43;;
55575;SDS011;41437;45.478;9.116;2022-10-15T10:39:55;111.57;;;64.97;;
55575;SDS011;41437;45.478;9.116;2022-10-15T10:43:09;107.22;;;61.50;;
55575;SDS011;41437;45.478;9.116;2022-10-15T10:46:19;110.07;;;64.65;;
55575;SDS011;41437;45.478;9.116;2022-10-15T10:49:29;106.30;;;64.00;;
55575;SDS011;41437;45.478;9.116;2022-10-15T10:52:33;104.20;;;61.15;;
55575;SDS011;41437;45.478;9.116;2022-10-15T10:55:41;108.60;;;60.30;;
55575;SDS011;41437;45.478;9.116;2022-10-15T10:58:47;97.45;;;58.90;;
55575;SDS011;41437;45.478;9.116;2022-10-15T11:01:56;88.78;;;55.42;;
55575;SDS011;41437;45.478;9.116;2022-10-15T11:04:58;92.30;;;56.97;;
55575;SDS011;41437;45.478;9.116;2022-10-15T11:08:02;84.35;;;52.75;;
55575;SDS011;41437;45.478;9.116;2022-10-15T11:11:11;79.50;;;51.25;;
55575;SDS011;41437;45.478;9.116;2022-10-15T11:14:23;86.15;;;53.63;;
55575;SDS011;41437;45.478;9.116;2022-10-15T11:17:34;83.77;;;54.40;;
55575;SDS011;41437;45.478;9.116;2022-10-15T11:20:48;84.15;;;52.08;;
55575;SDS011;41437;45.478;9.116;2022-10-15T11:24:02;85.85;;;52.28;;
55575;SDS011;41437;45.478;9.116;2022-10-15T11:27:13;85.80;;;52.55;;
55575;SDS011;41437;45.478;9.116;2022-10-15T11:30:31;76.15;;;47.08;;
55575;SDS011;41437;45.478;9.116;2022-10-15T11:33:50;65.07;;;42.20;;
55575;SDS011;41437;45.478;9.116;2022-10-15T11:37:09;61.53;;;40.90;;
55575;SDS011;41437;45.478;9.116;2022-10-15T11:40:22;67.32;;;42.08;;
55575;SDS011;41437;45.478;9.116;2022-10-15T11:43:36;64.15;;;43.25;;
55575;SDS011;41437;45.478;9.116;2022-10-15T11:47:01;69.38;;;44.85;;
55575;SDS011;41437;45.478;9.116;2022-10-15T11:50:17;60.95;;;40.85;;
55575;SDS011;41437;45.478;9.116;2022-10-15T11:53:36;64.40;;;41.97;;
55575;SDS011;41437;45.478;9.116;2022-10-15T11:56:52;60.17;;;38.90;;
55575;SDS011;41437;45.478;9.116;2022-10-15T11:59:59;51.17;;;34.55;;
55575;SDS011;41437;45.478;9.116;2022-10-15T12:03:11;53.38;;;36.72;;
55575;SDS011;41437;45.478;9.116;2022-10-15T12:06:16;52.13;;;35.65;;
55575;SDS011;41437;45.478;9.116;2022-10-15T12:09:23;59.63;;;37.70;;
55575;SDS011;41437;45.478;9.116;2022-10-15T12:12:32;55.30;;;38.22;;
55575;SDS011;41437;45.478;9.116;2022-10-15T12:15:40;56.17;;;36.63;;
55575;SDS011;41437;45.478;9.116;2022-10-15T12:18:53;51.45;;;36.15;;
55575;SDS011;41437;45.478;9.116;2022-10-15T12:22:05;51.70;;;33.80;;
55575;SDS011;41437;45.478;9.116;2022-10-15T12:28:54;51.80;;;34.28;;
55575;SDS011;41437;45.478;9.116;2022-10-15T12:31:56;46.53;;;31.83;;
55575;SDS011;41437;45.478;9.116;2022-10-15T12:35:01;45.20;;;30.30;;
55575;SDS011;41437;45.478;9.116;2022-10-15T12:38:10;46.47;;;30.27;;
55575;SDS011;41437;45.478;9.116;2022-10-15T12:41:19;54.17;;;35.67;;
55575;SDS011;41437;45.478;9.116;2022-10-15T12:44:21;43.20;;;28.52;;
55575;SDS011;41437;45.478;9.116;2022-10-15T12:47:45;46.33;;;32.40;;
55575;SDS011;41437;45.478;9.116;2022-10-15T12:50:51;45.85;;;31.13;;
55575;SDS011;41437;45.478;9.116;2022-10-15T12:54:41;48.97;;;32.80;;
55575;SDS011;41437;45.478;9.116;2022-10-15T12:57:58;47.90;;;33.03;;
55575;SDS011;41437;45.478;9.116;2022-10-15T13:01:27;47.13;;;32.33;;
55575;SDS011;41437;45.478;9.116;2022-10-15T13:04:49;48.45;;;31.65;;
55575;SDS011;41437;45.478;9.116;2022-10-15T13:07:51;40.58;;;29.15;;
55575;SDS011;41437;45.478;9.116;2022-10-15T13:10:56;44.90;;;29.95;;
55575;SDS011;41437;45.478;9.116;2022-10-15T13:14:01;44.17;;;29.17;;
55575;SDS011;41437;45.478;9.116;2022-10-15T13:17:15;41.30;;;28.08;;
55575;SDS011;41437;45.478;9.116;2022-10-15T13:20:27;48.22;;;31.83;;
55575;SDS011;41437;45.478;9.116;2022-10-15T13:23:33;47.40;;;29.13;;
55575;SDS011;41437;45.478;9.116;2022-10-15T13:26:36;40.25;;;27.40;;
55575;SDS011;41437;45.478;9.116;2022-10-15T13:29:38;38.83;;;27.13;;
55575;SDS011;41437;45.478;9.116;2022-10-15T13:32:41;41.53;;;28.52;;
55575;SDS011;41437;45.478;9.116;2022-10-15T13:35:46;36.83;;;25.63;;
55575;SDS011;41437;45.478;9.116;2022-10-15T13:38:52;32.15;;;21.05;;
55575;SDS011;41437;45.478;9.116;2022-10-15T13:42:08;27.17;;;18.98;;
55575;SDS011;41437;45.478;9.116;2022-10-15T13:45:15;31.98;;;21.42;;
55575;SDS011;41437;45.478;9.116;2022-10-15T13:48:18;31.90;;;21.95;;
55575;SDS011;41437;45.478;9.116;2022-10-15T13:51:22;31.83;;;21.33;;
55575;SDS011;41437;45.478;9.116;2022-10-15T13:54:31;31.77;;;21.73;;
55575;SDS011;41437;45.478;9.116;2022-10-15T13:57:36;33.70;;;24.05;;
55575;SDS011;41437;45.478;9.116;2022-10-15T14:00:38;39.38;;;25.63;;
55575;SDS011;41437;45.478;9.116;2022-10-15T14:03:44;37.42;;;24.63;;
55575;SDS011;41437;45.478;9.116;2022-10-15T14:06:52;35.65;;;24.38;;
55575;SDS011;41437;45.478;9.116;2022-10-15T14:10:00;30.80;;;22.20;;
55575;SDS011;41437;45.478;9.116;2022-10-15T14:13:03;33.50;;;23.00;;
55575;SDS011;41437;45.478;9.116;2022-10-15T14:16:12;40.00;;;24.80;;
55575;SDS011;41437;45.478;9.116;2022-10-15T14:19:18;40.50;;;27.50;;
55575;SDS011;41437;45.478;9.116;2022-10-15T14:22:26;45.50;;;29.58;;
55575;SDS011;41437;45.478;9.116;2022-10-15T14:25:29;40.63;;;27.35;;
55575;SDS011;41437;45.478;9.116;2022-10-15T14:28:32;39.85;;;26.73;;
55575;SDS011;41437;45.478;9.116;2022-10-15T14:31:36;32.40;;;23.60;;
55575;SDS011;41437;45.478;9.116;2022-10-15T14:34:39;34.95;;;23.83;;
55575;SDS011;41437;45.478;9.116;2022-10-15T14:37:42;37.90;;;25.48;;
55575;SDS011;41437;45.478;9.116;2022-10-15T14:40:55;32.80;;;22.92;;
55575;SDS011;41437;45.478;9.116;2022-10-15T14:44:03;34.90;;;21.85;;
55575;SDS011;41437;45.478;9.116;2022-10-15T14:47:09;28.10;;;20.67;;
55575;SDS011;41437;45.478;9.116;2022-10-15T14:50:18;27.73;;;19.90;;
55575;SDS011;41437;45.478;9.116;2022-10-15T14:53:22;28.08;;;19.02;;
55575;SDS011;41437;45.478;9.116;2022-10-15T14:56:28;29.88;;;20.45;;
55575;SDS011;41437;45.478;9.116;2022-10-15T14:59:34;34.60;;;20.60;;
55575;SDS011;41437;45.478;9.116;2022-10-15T15:02:37;26.52;;;19.15;;
55575;SDS011;41437;45.478;9.116;2022-10-15T15:05:43;28.35;;;18.55;;
55575;SDS011;41437;45.478;9.116;2022-10-15T15:08:46;30.42;;;20.10;;
55575;SDS011;41437;45.478;9.116;2022-10-15T15:11:48;31.80;;;21.35;;
55575;SDS011;41437;45.478;9.116;2022-10-15T15:14:51;35.00;;;24.23;;
55575;SDS011;41437;45.478;9.116;2022-10-15T15:17:52;34.97;;;22.00;;
55575;SDS011;41437;45.478;9.116;2022-10-15T15:20:55;34.60;;;22.42;;
55575;SDS011;41437;45.478;9.116;2022-10-15T15:24:01;31.73;;;22.08;;
55575;SDS011;41437;45.478;9.116;2022-10-15T15:27:03;34.58;;;22.85;;
55575;SDS011;41437;45.478;9.116;2022-10-15T15:30:06;32.13;;;23.52;;
55575;SDS011;41437;45.478;9.116;2022-10-15T15:33:14;30.27;;;22.30;;
55575;SDS011;41437;45.478;9.116;2022-10-15T15:36:17;28.17;;;21.55;;
55575;SDS011;41437;45.478;9.116;2022-10-15T15:39:19;35.00;;;23.65;;
55575;SDS011;41437;45.478;9.116;2022-10-15T15:42:21;29.13;;;22.02;;
55575;SDS011;41437;45.478;9.116;2022-10-15T15:48:28;33.40;;;25.58;;
55575;SDS011;41437;45.478;9.116;2022-10-15T15:51:30;32.85;;;23.38;;
55575;SDS011;41437;45.478;9.116;2022-10-15T15:54:32;32.35;;;24.20;;
55575;SDS011;41437;45.478;9.116;2022-10-15T15:57:33;36.25;;;24.77;;
55575;SDS011;41437;45.478;9.116;2022-10-15T16:00:37;33.42;;;25.00;;
55575;SDS011;41437;45.478;9.116;2022-10-15T16:03:39;33.28;;;24.75;;
55575;SDS011;41437;45.478;9.116;2022-10-15T16:06:40;36.15;;;25.38;;
55575;SDS011;41437;45.478;9.116;2022-10-15T16:09:42;34.65;;;24.23;;
55575;SDS011;41437;45.478;9.116;2022-10-15T16:12:44;35.97;;;24.77;;
55575;SDS011;41437;45.478;9.116;2022-10-15T16:15:47;34.42;;;24.85;;
55575;SDS011;41437;45.478;9.116;2022-10-15T16:18:48;32.60;;;24.50;;
55575;SDS011;41437;45.478;9.116;2022-10-15T16:21:50;34.05;;;25.38;;
55575;SDS011;41437;45.478;9.116;2022-10-15T16:24:52;32.17;;;23.52;;
55575;SDS011;41437;45.478;9.116;2022-10-15T16:27:54;30.52;;;22.08;;
55575;SDS011;41437;45.478;9.116;2022-10-15T16:31:13;32.55;;;22.98;;
55575;SDS011;41437;45.478;9.116;2022-10-15T16:34:16;31.25;;;21.83;;
55575;SDS011;41437;45.478;9.116;2022-10-15T16:37:17;30.42;;;20.70;;
55575;SDS011;41437;45.478;9.116;2022-10-15T16:40:20;30.70;;;22.25;;
55575;SDS011;41437;45.478;9.116;2022-10-15T16:43:21;33.78;;;23.15;;
55575;SDS011;41437;45.478;9.116;2022-10-15T16:46:24;27.90;;;22.02;;
55575;SDS011;41437;45.478;9.116;2022-10-15T16:49:26;42.30;;;25.85;;
55575;SDS011;41437;45.478;9.116;2022-10-15T16:52:28;32.15;;;23.33;;
55575;SDS011;41437;45.478;9.116;2022-10-15T16:55:30;37.03;;;24.90;;
55575;SDS011;41437;45.478;9.116;2022-10-15T16:58:32;34.45;;;24.08;;
55575;SDS011;41437;45.478;9.116;2022-10-15T17:01:36;30.23;;;22.30;;
55575;SDS011;41437;45.478;9.116;2022-10-15T17:04:37;33.13;;;22.15;;
55575;SDS011;41437;45.478;9.116;2022-10-15T17:07:39;34.30;;;23.88;;
55575;SDS011;41437;45.478;9.116;2022-10-15T17:10:41;34.38;;;23.88;;
55575;SDS011;41437;45.478;9.116;2022-10-15T17:13:44;33.20;;;24.02;;
55575;SDS011;41437;45.478;9.116;2022-10-15T17:16:48;30.05;;;22.65;;
55575;SDS011;41437;45.478;9.116;2022-10-15T17:19:51;32.97;;;25.40;;
55575;SDS011;41437;45.478;9.116;2022-10-15T17:22:52;36.60;;;25.88;;
55575;SDS011;41437;45.478;9.116;2022-10-15T17:25:54;37.65;;;26.75;;
55575;SDS011;41437;45.478;9.116;2022-10-15T17:28:56;36.70;;;25.85;;
55575;SDS011;41437;45.478;9.116;2022-10-15T17:31:59;42.83;;;28.55;;
55575;SDS011;41437;45.478;9.116;2022-10-15T17:35:02;37.92;;;27.67;;
55575;SDS011;41437;45.478;9.116;2022-10-15T17:38:04;39.67;;;25.52;;
55575;SDS011;41437;45.478;9.116;2022-10-15T17:41:06;38.60;;;25.73;;
55575;SDS011;41437;45.478;9.116;2022-10-15T17:44:10;36.53;;;25.23;;
55575;SDS011;41437;45.478;9.116;2022-10-15T17:47:14;34.53;;;23.90;;
55575;SDS011;41437;45.478;9.116;2022-10-15T17:50:17;37.92;;;26.50;;
55575;SDS011;41437;45.478;9.116;2022-10-15T17:53:19;32.53;;;24.20;;
55575;SDS011;41437;45.478;9.116;2022-10-15T17:56:22;34.95;;;25.13;;
55575;SDS011;41437;45.478;9.116;2022-10-15T17:59:25;37.75;;;26.00;;
55575;SDS011;41437;45.478;9.116;2022-10-15T18:02:28;38.83;;;25.50;;
55575;SDS011;41437;45.478;9.116;2022-10-15T18:05:30;35.90;;;25.13;;
55575;SDS011;41437;45.478;9.116;2022-10-15T18:08:32;38.17;;;26.00;;
55575;SDS011;41437;45.478;9.116;2022-10-15T18:11:33;34.20;;;24.70;;